sensor_id;sensor_type;location;lat;lon;timestamp;P1;durP1;ratioP1;P2;durP2;ratioP2
47413;SDS011;33163;0.000;0.000;2023-04-23T00:01:21;10.52;;;7.28;;
47413;SDS011;33163;0.000;0.000;2023-04-23T00:03:51;11.63;;;7.93;;
47413;SDS011;33163;0.000;0.000;2023-04-23T00:06:22;10.43;;;7.45;;
47413;SDS011;33163;0.000;0.000;2023-04-23T00:08:50;11.65;;;7.50;;
47413;SDS011;33163;0.000;0.000;2023-04-23T00:11:18;11.63;;;8.00;;
47413;SDS011;33163;0.000;0.000;2023-04-23T00:13:46;9.70;;;7.22;;
47413;SDS011;33163;0.000;0.000;2023-04-23T00:16:13;12.13;;;7.40;;
47413;SDS011;33163;0.000;0.000;2023-04-23T00:18:40;9.23;;;6.53;;
47413;SDS011;33163;0.000;0.000;2023-04-23T00:21:07;10.68;;;7.40;;
47413;SDS011;33163;0.000;0.000;2023-04-23T00:23:36;10.68;;;7.45;;
47413;SDS011;33163;0.000;0.000;2023-04-23T00:26:04;9.77;;;6.95;;
47413;SDS011;33163;0.000;0.000;2023-04-23T00:28:30;11.25;;;6.78;;
47413;SDS011;33163;0.000;0.000;2023-04-23T00:30:57;8.43;;;6.53;;
47413;SDS011;33163;0.000;0.000;2023-04-23T00:33:24;9.90;;;7.20;;
47413;SDS011;33163;0.000;0.000;2023-04-23T00:35:51;12.95;;;7.88;;
47413;SDS011;33163;0.000;0.000;2023-04-23T00:38:17;9.77;;;7.15;;
47413;SDS011;33163;0.000;0.000;2023-04-23T00:40:46;11.02;;;7.28;;
47413;SDS011;33163;0.000;0.000;2023-04-23T00:43:13;9.45;;;7.15;;
47413;SDS011;33163;0.000;0.000;2023-04-23T00:45:41;11.82;;;7.70;;
47413;SDS011;33163;0.000;0.000;2023-04-23T00:48:08;11.77;;;7.28;;
47413;SDS011;33163;0.000;0.000;2023-04-23T00:50:37;10.70;;;6.97;;
47413;SDS011;33163;0.000;0.000;2023-04-23T00:53:04;9.23;;;7.20;;
47413;SDS011;33163;0.000;0.000;2023-04-23T00:55:30;11.20;;;7.63;;
47413;SDS011;33163;0.000;0.000;2023-04-23T00:58:00;10.93;;;7.90;;
47413;SDS011;33163;0.000;0.000;2023-04-23T01:00:27;10.43;;;6.95;;
47413;SDS011;33163;0.000;0.000;2023-04-23T01:02:54;9.38;;;6.95;;
47413;SDS011;33163;0.000;0.000;2023-04-23T01:05:22;10.30;;;6.80;;
47413;SDS011;33163;0.000;0.000;2023-04-23T01:07:49;12.50;;;7.35;;
47413;SDS011;33163;0.000;0.000;2023-04-23T01:10:16;11.48;;;7.05;;
47413;SDS011;33163;0.000;0.000;2023-04-23T01:12:43;9.25;;;6.82;;
47413;SDS011;33163;0.000;0.000;2023-04-23T01:15:11;10.75;;;7.47;;
47413;SDS011;33163;0.000;0.000;2023-04-23T01:17:38;10.40;;;6.65;;
47413;SDS011;33163;0.000;0.000;2023-04-23T01:20:05;8.20;;;6.47;;
47413;SDS011;33163;0.000;0.000;2023-04-23T01:22:35;10.75;;;7.18;;
47413;SDS011;33163;0.000;0.000;2023-04-23T01:25:02;9.57;;;6.50;;
47413;SDS011;33163;0.000;0.000;2023-04-23T01:27:29;8.18;;;6.13;;
47413;SDS011;33163;0.000;0.000;2023-04-23T01:29:59;9.15;;;6.32;;
47413;SDS011;33163;0.000;0.000;2023-04-23T01:32:28;8.93;;;6.60;;
47413;SDS011;33163;0.000;0.000;2023-04-23T01:34:55;9.35;;;5.95;;
47413;SDS011;33163;0.000;0.000;2023-04-23T01:37:23;10.85;;;7.07;;
47413;SDS011;33163;0.000;0.000;2023-04-23T01:39:52;10.27;;;6.93;;
47413;SDS011;33163;0.000;0.000;2023-04-23T01:42:20;8.18;;;6.15;;
47413;SDS011;33163;0.000;0.000;2023-04-23T01:44:47;8.48;;;6.38;;
47413;SDS011;33163;0.000;0.000;2023-04-23T01:47:14;9.15;;;6.25;;
47413;SDS011;33163;0.000;0.000;2023-04-23T01:49:43;7.40;;;6.05;;
47413;SDS011;33163;0.000;0.000;2023-04-23T01:52:10;8.20;;;6.10;;
47413;SDS011;33163;0.000;0.000;2023-04-23T01:54:37;9.43;;;6.68;;
47413;SDS011;33163;0.000;0.000;2023-04-23T01:57:05;9.02;;;5.72;;
47413;SDS011;33163;0.000;0.000;2023-04-23T01:59:38;8.43;;;6.25;;
47413;SDS011;33163;0.000;0.000;2023-04-23T02:02:05;8.30;;;5.60;;
47413;SDS011;33163;0.000;0.000;2023-04-23T02:04:34;9.73;;;6.88;;
47413;SDS011;33163;0.000;0.000;2023-04-23T02:07:03;10.10;;;6.78;;
47413;SDS011;33163;0.000;0.000;2023-04-23T02:09:30;10.20;;;7.05;;
47413;SDS011;33163;0.000;0.000;2023-04-23T02:11:56;6.95;;;5.55;;
47413;SDS011;33163;0.000;0.000;2023-04-23T02:14:24;7.32;;;5.95;;
47413;SDS011;33163;0.000;0.000;2023-04-23T02:16:51;7.53;;;5.53;;
47413;SDS011;33163;0.000;0.000;2023-04-23T02:19:18;7.35;;;5.20;;
47413;SDS011;33163;0.000;0.000;2023-04-23T02:21:45;7.38;;;5.45;;
47413;SDS011;33163;0.000;0.000;2023-04-23T02:24:11;6.63;;;4.85;;
47413;SDS011;33163;0.000;0.000;2023-04-23T02:26:38;6.88;;;5.50;;
47413;SDS011;33163;0.000;0.000;2023-04-23T02:29:05;8.20;;;5.72;;
47413;SDS011;33163;0.000;0.000;2023-04-23T02:31:33;7.93;;;5.20;;
47413;SDS011;33163;0.000;0.000;2023-04-23T02:33:59;7.88;;;5.95;;
47413;SDS011;33163;0.000;0.000;2023-04-23T02:36:26;7.43;;;5.35;;
47413;SDS011;33163;0.000;0.000;2023-04-23T02:38:55;7.25;;;5.47;;
47413;SDS011;33163;0.000;0.000;2023-04-23T02:41:21;7.93;;;5.88;;
47413;SDS011;33163;0.000;0.000;2023-04-23T02:43:48;8.65;;;5.95;;
47413;SDS011;33163;0.000;0.000;2023-04-23T02:46:15;8.18;;;5.25;;
47413;SDS011;33163;0.000;0.000;2023-04-23T02:48:43;6.90;;;5.28;;
47413;SDS011;33163;0.000;0.000;2023-04-23T02:51:11;7.78;;;5.15;;
47413;SDS011;33163;0.000;0.000;2023-04-23T02:53:38;6.50;;;5.07;;
47413;SDS011;33163;0.000;0.000;2023-04-23T02:56:05;5.80;;;4.65;;
47413;SDS011;33163;0.000;0.000;2023-04-23T02:58:32;7.22;;;5.22;;
47413;SDS011;33163;0.000;0.000;2023-04-23T03:00:59;9.02;;;5.35;;
47413;SDS011;33163;0.000;0.000;2023-04-23T03:03:26;6.78;;;5.35;;
47413;SDS011;33163;0.000;0.000;2023-04-23T03:05:56;5.60;;;4.90;;
47413;SDS011;33163;0.000;0.000;2023-04-23T03:08:24;8.02;;;5.53;;
47413;SDS011;33163;0.000;0.000;2023-04-23T03:11:05;6.40;;;5.03;;
47413;SDS011;33163;0.000;0.000;2023-04-23T03:13:32;7.43;;;5.20;;
47413;SDS011;33163;0.000;0.000;2023-04-23T03:15:59;7.68;;;4.97;;
47413;SDS011;33163;0.000;0.000;2023-04-23T03:18:26;7.88;;;5.40;;
47413;SDS011;33163;0.000;0.000;2023-04-23T03:20:52;8.32;;;4.97;;
47413;SDS011;33163;0.000;0.000;2023-04-23T03:23:21;6.18;;;4.65;;
47413;SDS011;33163;0.000;0.000;2023-04-23T03:25:47;7.45;;;5.47;;
47413;SDS011;33163;0.000;0.000;2023-04-23T03:28:14;6.32;;;4.57;;
47413;SDS011;33163;0.000;0.000;2023-04-23T03:30:41;5.25;;;4.38;;
47413;SDS011;33163;0.000;0.000;2023-04-23T03:33:08;6.28;;;4.50;;
47413;SDS011;33163;0.000;0.000;2023-04-23T03:35:34;9.20;;;5.78;;
47413;SDS011;33163;0.000;0.000;2023-04-23T03:38:01;6.78;;;5.03;;
47413;SDS011;33163;0.000;0.000;2023-04-23T03:40:29;4.38;;;3.47;;
47413;SDS011;33163;0.000;0.000;2023-04-23T03:42:56;6.63;;;4.55;;
47413;SDS011;33163;0.000;0.000;2023-04-23T03:45:23;5.43;;;4.18;;
47413;SDS011;33163;0.000;0.000;2023-04-23T03:47:50;5.78;;;4.78;;
47413;SDS011;33163;0.000;0.000;2023-04-23T03:50:17;6.20;;;4.43;;
47413;SDS011;33163;0.000;0.000;2023-04-23T03:52:44;5.15;;;4.60;;
47413;SDS011;33163;0.000;0.000;2023-04-23T03:55:10;6.60;;;4.75;;
47413;SDS011;33163;0.000;0.000;2023-04-23T03:57:39;7.00;;;4.53;;
47413;SDS011;33163;0.000;0.000;2023-04-23T04:00:06;6.30;;;4.82;;
47413;SDS011;33163;0.000;0.000;2023-04-23T04:02:35;7.57;;;5.13;;
47413;SDS011;33163;0.000;0.000;2023-04-23T04:05:02;5.30;;;4.50;;
47413;SDS011;33163;0.000;0.000;2023-04-23T04:07:29;6.78;;;5.40;;
47413;SDS011;33163;0.000;0.000;2023-04-23T04:09:57;5.38;;;4.22;;
47413;SDS011;33163;0.000;0.000;2023-04-23T04:12:27;5.03;;;4.53;;
47413;SDS011;33163;0.000;0.000;2023-04-23T04:14:55;4.43;;;4.03;;
47413;SDS011;33163;0.000;0.000;2023-04-23T04:17:21;8.18;;;4.78;;
47413;SDS011;33163;0.000;0.000;2023-04-23T04:19:48;4.85;;;4.05;;
47413;SDS011;33163;0.000;0.000;2023-04-23T04:22:15;6.13;;;3.67;;
47413;SDS011;33163;0.000;0.000;2023-04-23T04:24:42;6.22;;;4.03;;
47413;SDS011;33163;0.000;0.000;2023-04-23T04:27:11;5.22;;;4.47;;
47413;SDS011;33163;0.000;0.000;2023-04-23T04:29:38;6.03;;;4.45;;
47413;SDS011;33163;0.000;0.000;2023-04-23T04:32:06;6.03;;;4.50;;
47413;SDS011;33163;0.000;0.000;2023-04-23T04:34:33;6.30;;;4.38;;
47413;SDS011;33163;0.000;0.000;2023-04-23T04:37:09;5.50;;;4.25;;
47413;SDS011;33163;0.000;0.000;2023-04-23T04:39:49;5.13;;;4.10;;
47413;SDS011;33163;0.000;0.000;2023-04-23T04:42:16;5.68;;;4.00;;
47413;SDS011;33163;0.000;0.000;2023-04-23T04:44:43;5.38;;;4.40;;
47413;SDS011;33163;0.000;0.000;2023-04-23T04:47:11;5.93;;;4.38;;
47413;SDS011;33163;0.000;0.000;2023-04-23T04:49:40;4.38;;;3.90;;
47413;SDS011;33163;0.000;0.000;2023-04-23T04:52:07;5.03;;;4.05;;
47413;SDS011;33163;0.000;0.000;2023-04-23T04:54:33;5.55;;;4.63;;
47413;SDS011;33163;0.000;0.000;2023-04-23T04:57:00;6.10;;;4.38;;
47413;SDS011;33163;0.000;0.000;2023-04-23T04:59:27;5.13;;;4.20;;
47413;SDS011;33163;0.000;0.000;2023-04-23T05:01:54;4.90;;;4.20;;
47413;SDS011;33163;0.000;0.000;2023-04-23T05:04:22;5.97;;;4.32;;
47413;SDS011;33163;0.000;0.000;2023-04-23T05:06:49;6.68;;;3.95;;
47413;SDS011;33163;0.000;0.000;2023-04-23T05:09:16;5.07;;;3.85;;
47413;SDS011;33163;0.000;0.000;2023-04-23T05:11:43;7.50;;;4.50;;
47413;SDS011;33163;0.000;0.000;2023-04-23T05:14:09;4.63;;;3.97;;
47413;SDS011;33163;0.000;0.000;2023-04-23T05:16:36;5.35;;;3.90;;
47413;SDS011;33163;0.000;0.000;2023-04-23T05:19:03;4.53;;;3.67;;
47413;SDS011;33163;0.000;0.000;2023-04-23T05:21:31;8.40;;;4.60;;
47413;SDS011;33163;0.000;0.000;2023-04-23T05:23:58;6.22;;;4.25;;
47413;SDS011;33163;0.000;0.000;2023-04-23T05:26:25;4.13;;;3.72;;
47413;SDS011;33163;0.000;0.000;2023-04-23T05:28:52;5.65;;;4.10;;
47413;SDS011;33163;0.000;0.000;2023-04-23T05:31:19;4.43;;;3.90;;
47413;SDS011;33163;0.000;0.000;2023-04-23T05:33:46;5.75;;;3.70;;
47413;SDS011;33163;0.000;0.000;2023-04-23T05:36:12;6.10;;;4.22;;
47413;SDS011;33163;0.000;0.000;2023-04-23T05:38:40;5.10;;;4.00;;
47413;SDS011;33163;0.000;0.000;2023-04-23T05:41:07;5.15;;;3.95;;
47413;SDS011;33163;0.000;0.000;2023-04-23T05:43:34;5.18;;;3.45;;
47413;SDS011;33163;0.000;0.000;2023-04-23T05:46:01;4.80;;;3.72;;
47413;SDS011;33163;0.000;0.000;2023-04-23T05:48:28;4.55;;;3.83;;
47413;SDS011;33163;0.000;0.000;2023-04-23T05:50:55;4.32;;;3.63;;
47413;SDS011;33163;0.000;0.000;2023-04-23T05:53:22;5.78;;;3.63;;
47413;SDS011;33163;0.000;0.000;2023-04-23T05:55:50;5.43;;;4.15;;
47413;SDS011;33163;0.000;0.000;2023-04-23T05:58:16;5.00;;;4.07;;
47413;SDS011;33163;0.000;0.000;2023-04-23T06:00:43;5.43;;;4.25;;
47413;SDS011;33163;0.000;0.000;2023-04-23T06:03:10;4.53;;;4.13;;
47413;SDS011;33163;0.000;0.000;2023-04-23T06:05:37;4.88;;;3.67;;
47413;SDS011;33163;0.000;0.000;2023-04-23T06:08:06;5.43;;;4.30;;
47413;SDS011;33163;0.000;0.000;2023-04-23T06:10:33;4.72;;;3.55;;
47413;SDS011;33163;0.000;0.000;2023-04-23T06:13:01;7.03;;;3.40;;
47413;SDS011;33163;0.000;0.000;2023-04-23T06:15:28;5.70;;;4.20;;
47413;SDS011;33163;0.000;0.000;2023-04-23T06:17:55;5.10;;;3.92;;
47413;SDS011;33163;0.000;0.000;2023-04-23T06:20:22;4.22;;;3.50;;
47413;SDS011;33163;0.000;0.000;2023-04-23T06:22:48;7.97;;;4.15;;
47413;SDS011;33163;0.000;0.000;2023-04-23T06:25:15;7.18;;;3.95;;
47413;SDS011;33163;0.000;0.000;2023-04-23T06:27:42;6.53;;;3.53;;
47413;SDS011;33163;0.000;0.000;2023-04-23T06:30:10;8.02;;;4.38;;
47413;SDS011;33163;0.000;0.000;2023-04-23T06:32:38;5.60;;;3.70;;
47413;SDS011;33163;0.000;0.000;2023-04-23T06:35:05;5.10;;;3.72;;
47413;SDS011;33163;0.000;0.000;2023-04-23T06:37:32;4.95;;;3.90;;
47413;SDS011;33163;0.000;0.000;2023-04-23T06:39:59;4.95;;;3.88;;
47413;SDS011;33163;0.000;0.000;2023-04-23T06:42:25;5.35;;;4.28;;
47413;SDS011;33163;0.000;0.000;2023-04-23T06:44:52;8.10;;;4.18;;
47413;SDS011;33163;0.000;0.000;2023-04-23T06:47:21;10.52;;;5.93;;
47413;SDS011;33163;0.000;0.000;2023-04-23T06:49:47;17.83;;;5.80;;
47413;SDS011;33163;0.000;0.000;2023-04-23T06:52:14;9.75;;;4.25;;
47413;SDS011;33163;0.000;0.000;2023-04-23T06:54:41;10.43;;;4.63;;
47413;SDS011;33163;0.000;0.000;2023-04-23T06:57:08;7.30;;;3.80;;
47413;SDS011;33163;0.000;0.000;2023-04-23T06:59:35;7.85;;;3.95;;
47413;SDS011;33163;0.000;0.000;2023-04-23T07:02:01;9.75;;;4.43;;
47413;SDS011;33163;0.000;0.000;2023-04-23T07:04:29;10.20;;;3.85;;
47413;SDS011;33163;0.000;0.000;2023-04-23T07:06:56;7.15;;;4.22;;
47413;SDS011;33163;0.000;0.000;2023-04-23T07:09:24;7.40;;;4.07;;
47413;SDS011;33163;0.000;0.000;2023-04-23T07:11:51;10.48;;;3.58;;
47413;SDS011;33163;0.000;0.000;2023-04-23T07:14:18;10.45;;;3.97;;
47413;SDS011;33163;0.000;0.000;2023-04-23T07:16:45;8.50;;;4.03;;
47413;SDS011;33163;0.000;0.000;2023-04-23T07:19:12;6.70;;;3.72;;
47413;SDS011;33163;0.000;0.000;2023-04-23T07:21:40;5.10;;;3.70;;
47413;SDS011;33163;0.000;0.000;2023-04-23T07:24:07;10.30;;;3.33;;
47413;SDS011;33163;0.000;0.000;2023-04-23T07:26:34;11.32;;;3.67;;
47413;SDS011;33163;0.000;0.000;2023-04-23T07:29:01;5.15;;;3.38;;
47413;SDS011;33163;0.000;0.000;2023-04-23T07:31:28;4.45;;;3.38;;
47413;SDS011;33163;0.000;0.000;2023-04-23T07:33:55;8.45;;;3.67;;
47413;SDS011;33163;0.000;0.000;2023-04-23T07:36:21;4.45;;;2.97;;
47413;SDS011;33163;0.000;0.000;2023-04-23T07:38:50;7.00;;;3.25;;
47413;SDS011;33163;0.000;0.000;2023-04-23T07:41:17;6.68;;;3.30;;
47413;SDS011;33163;0.000;0.000;2023-04-23T07:43:43;10.48;;;3.60;;
47413;SDS011;33163;0.000;0.000;2023-04-23T07:46:10;5.75;;;3.47;;
47413;SDS011;33163;0.000;0.000;2023-04-23T07:48:37;6.35;;;3.85;;
47413;SDS011;33163;0.000;0.000;2023-04-23T07:51:04;8.70;;;3.60;;
47413;SDS011;33163;0.000;0.000;2023-04-23T07:53:31;6.45;;;3.53;;
47413;SDS011;33163;0.000;0.000;2023-04-23T07:55:59;3.63;;;2.97;;
47413;SDS011;33163;0.000;0.000;2023-04-23T07:58:26;4.45;;;2.88;;
47413;SDS011;33163;0.000;0.000;2023-04-23T08:00:53;5.15;;;3.15;;
47413;SDS011;33163;0.000;0.000;2023-04-23T08:03:19;8.38;;;2.90;;
47413;SDS011;33163;0.000;0.000;2023-04-23T08:05:47;5.25;;;3.10;;
47413;SDS011;33163;0.000;0.000;2023-04-23T08:08:14;7.07;;;3.45;;
47413;SDS011;33163;0.000;0.000;2023-04-23T08:10:40;5.18;;;3.25;;
47413;SDS011;33163;0.000;0.000;2023-04-23T08:13:09;5.40;;;2.83;;
47413;SDS011;33163;0.000;0.000;2023-04-23T08:15:36;5.00;;;2.75;;
47413;SDS011;33163;0.000;0.000;2023-04-23T08:18:03;5.70;;;3.38;;
47413;SDS011;33163;0.000;0.000;2023-04-23T08:20:30;2.97;;;2.67;;
47413;SDS011;33163;0.000;0.000;2023-04-23T08:22:57;6.28;;;3.17;;
47413;SDS011;33163;0.000;0.000;2023-04-23T08:25:24;8.82;;;3.13;;
47413;SDS011;33163;0.000;0.000;2023-04-23T08:27:51;4.13;;;3.08;;
47413;SDS011;33163;0.000;0.000;2023-04-23T08:30:19;5.57;;;3.13;;
47413;SDS011;33163;0.000;0.000;2023-04-23T08:32:47;7.35;;;3.53;;
47413;SDS011;33163;0.000;0.000;2023-04-23T08:35:14;4.53;;;2.80;;
47413;SDS011;33163;0.000;0.000;2023-04-23T08:37:41;4.40;;;2.83;;
47413;SDS011;33163;0.000;0.000;2023-04-23T08:40:08;5.80;;;3.50;;
47413;SDS011;33163;0.000;0.000;2023-04-23T08:42:36;6.20;;;2.90;;
47413;SDS011;33163;0.000;0.000;2023-04-23T08:45:07;7.57;;;3.70;;
47413;SDS011;33163;0.000;0.000;2023-04-23T08:47:36;8.55;;;3.22;;
47413;SDS011;33163;0.000;0.000;2023-04-23T08:50:07;12.93;;;3.78;;
47413;SDS011;33163;0.000;0.000;2023-04-23T08:52:35;10.20;;;3.65;;
47413;SDS011;33163;0.000;0.000;2023-04-23T08:55:06;14.25;;;3.20;;
47413;SDS011;33163;0.000;0.000;2023-04-23T08:57:35;9.63;;;3.47;;
47413;SDS011;33163;0.000;0.000;2023-04-23T09:00:04;9.00;;;4.00;;
47413;SDS011;33163;0.000;0.000;2023-04-23T09:02:32;10.82;;;3.40;;
47413;SDS011;33163;0.000;0.000;2023-04-23T09:05:02;7.60;;;2.95;;
47413;SDS011;33163;0.000;0.000;2023-04-23T09:07:29;10.45;;;3.85;;
47413;SDS011;33163;0.000;0.000;2023-04-23T09:09:56;9.43;;;3.28;;
47413;SDS011;33163;0.000;0.000;2023-04-23T09:12:23;6.28;;;3.65;;
47413;SDS011;33163;0.000;0.000;2023-04-23T09:14:50;11.85;;;3.47;;
47413;SDS011;33163;0.000;0.000;2023-04-23T09:17:17;10.02;;;3.72;;
47413;SDS011;33163;0.000;0.000;2023-04-23T09:19:44;9.77;;;3.58;;
47413;SDS011;33163;0.000;0.000;2023-04-23T09:22:12;5.93;;;3.42;;
47413;SDS011;33163;0.000;0.000;2023-04-23T09:24:40;8.73;;;2.83;;
47413;SDS011;33163;0.000;0.000;2023-04-23T09:27:08;10.70;;;3.67;;
47413;SDS011;33163;0.000;0.000;2023-04-23T09:29:35;6.25;;;2.85;;
47413;SDS011;33163;0.000;0.000;2023-04-23T09:32:04;7.28;;;3.65;;
47413;SDS011;33163;0.000;0.000;2023-04-23T09:34:33;7.47;;;3.45;;
47413;SDS011;33163;0.000;0.000;2023-04-23T09:37:00;5.82;;;2.92;;
47413;SDS011;33163;0.000;0.000;2023-04-23T09:39:31;6.93;;;3.40;;
47413;SDS011;33163;0.000;0.000;2023-04-23T09:42:01;4.80;;;2.72;;
47413;SDS011;33163;0.000;0.000;2023-04-23T09:44:30;9.35;;;3.45;;
47413;SDS011;33163;0.000;0.000;2023-04-23T09:47:04;5.65;;;3.45;;
47413;SDS011;33163;0.000;0.000;2023-04-23T09:49:43;8.80;;;2.95;;
47413;SDS011;33163;0.000;0.000;2023-04-23T09:52:10;8.45;;;3.38;;
47413;SDS011;33163;0.000;0.000;2023-04-23T09:54:38;8.35;;;3.03;;
47413;SDS011;33163;0.000;0.000;2023-04-23T09:57:05;13.80;;;3.38;;
47413;SDS011;33163;0.000;0.000;2023-04-23T09:59:33;6.72;;;2.70;;
47413;SDS011;33163;0.000;0.000;2023-04-23T10:02:01;6.97;;;2.95;;
47413;SDS011;33163;0.000;0.000;2023-04-23T10:04:31;9.40;;;2.90;;
47413;SDS011;33163;0.000;0.000;2023-04-23T10:06:59;6.00;;;2.65;;
47413;SDS011;33163;0.000;0.000;2023-04-23T10:09:27;3.72;;;2.47;;
47413;SDS011;33163;0.000;0.000;2023-04-23T10:11:56;7.72;;;3.00;;
47413;SDS011;33163;0.000;0.000;2023-04-23T10:14:26;8.68;;;3.08;;
47413;SDS011;33163;0.000;0.000;2023-04-23T10:16:56;8.30;;;2.28;;
47413;SDS011;33163;0.000;0.000;2023-04-23T10:19:24;6.72;;;2.50;;
47413;SDS011;33163;0.000;0.000;2023-04-23T10:21:53;6.30;;;2.88;;
47413;SDS011;33163;0.000;0.000;2023-04-23T10:24:22;5.47;;;2.40;;
47413;SDS011;33163;0.000;0.000;2023-04-23T10:26:52;6.03;;;2.50;;
47413;SDS011;33163;0.000;0.000;2023-04-23T10:29:26;9.52;;;2.60;;
47413;SDS011;33163;0.000;0.000;2023-04-23T10:31:54;5.28;;;2.42;;
47413;SDS011;33163;0.000;0.000;2023-04-23T10:34:23;14.75;;;3.50;;
47413;SDS011;33163;0.000;0.000;2023-04-23T10:36:50;28.70;;;3.65;;
47413;SDS011;33163;0.000;0.000;2023-04-23T10:39:17;16.35;;;2.63;;
47413;SDS011;33163;0.000;0.000;2023-04-23T10:41:45;12.27;;;2.58;;
47413;SDS011;33163;0.000;0.000;2023-04-23T10:44:15;20.35;;;3.17;;
47413;SDS011;33163;0.000;0.000;2023-04-23T10:46:49;18.60;;;3.20;;
47413;SDS011;33163;0.000;0.000;2023-04-23T10:49:17;30.52;;;3.22;;
47413;SDS011;33163;0.000;0.000;2023-04-23T10:51:44;13.27;;;2.60;;
47413;SDS011;33163;0.000;0.000;2023-04-23T10:54:13;13.25;;;2.65;;
47413;SDS011;33163;0.000;0.000;2023-04-23T10:56:41;9.75;;;2.40;;
47413;SDS011;33163;0.000;0.000;2023-04-23T10:59:17;13.90;;;2.60;;
47413;SDS011;33163;0.000;0.000;2023-04-23T11:01:45;9.80;;;2.60;;
47413;SDS011;33163;0.000;0.000;2023-04-23T11:04:20;9.57;;;2.40;;
47413;SDS011;33163;0.000;0.000;2023-04-23T11:06:51;8.20;;;2.30;;
47413;SDS011;33163;0.000;0.000;2023-04-23T11:12:11;10.13;;;1.95;;
47413;SDS011;33163;0.000;0.000;2023-04-23T11:14:45;8.43;;;2.50;;
47413;SDS011;33163;0.000;0.000;2023-04-23T11:17:14;9.55;;;2.90;;
47413;SDS011;33163;0.000;0.000;2023-04-23T11:22:34;12.70;;;2.45;;
47413;SDS011;33163;0.000;0.000;2023-04-23T11:25:01;12.07;;;2.83;;
47413;SDS011;33163;0.000;0.000;2023-04-23T11:27:29;12.35;;;2.10;;
47413;SDS011;33163;0.000;0.000;2023-04-23T11:29:57;7.70;;;2.42;;
47413;SDS011;33163;0.000;0.000;2023-04-23T11:32:24;15.35;;;2.45;;
47413;SDS011;33163;0.000;0.000;2023-04-23T11:34:53;8.30;;;2.22;;
47413;SDS011;33163;0.000;0.000;2023-04-23T11:37:21;8.63;;;2.17;;
47413;SDS011;33163;0.000;0.000;2023-04-23T11:39:50;6.80;;;2.13;;
47413;SDS011;33163;0.000;0.000;2023-04-23T11:42:16;13.70;;;2.95;;
47413;SDS011;33163;0.000;0.000;2023-04-23T11:44:45;9.43;;;2.50;;
47413;SDS011;33163;0.000;0.000;2023-04-23T11:47:14;10.52;;;2.58;;
47413;SDS011;33163;0.000;0.000;2023-04-23T11:49:42;11.85;;;2.10;;
47413;SDS011;33163;0.000;0.000;2023-04-23T11:52:10;13.77;;;2.72;;
47413;SDS011;33163;0.000;0.000;2023-04-23T11:54:38;8.80;;;2.33;;
47413;SDS011;33163;0.000;0.000;2023-04-23T11:57:06;11.57;;;2.40;;
47413;SDS011;33163;0.000;0.000;2023-04-23T11:59:34;13.27;;;2.88;;
47413;SDS011;33163;0.000;0.000;2023-04-23T12:02:00;10.80;;;2.50;;
47413;SDS011;33163;0.000;0.000;2023-04-23T12:04:29;8.68;;;2.30;;
47413;SDS011;33163;0.000;0.000;2023-04-23T12:06:57;14.63;;;2.80;;
47413;SDS011;33163;0.000;0.000;2023-04-23T12:09:24;14.00;;;3.25;;
47413;SDS011;33163;0.000;0.000;2023-04-23T12:11:52;13.70;;;2.05;;
47413;SDS011;33163;0.000;0.000;2023-04-23T12:14:20;10.25;;;2.63;;
47413;SDS011;33163;0.000;0.000;2023-04-23T12:16:52;10.75;;;2.78;;
47413;SDS011;33163;0.000;0.000;2023-04-23T12:19:21;10.40;;;2.63;;
47413;SDS011;33163;0.000;0.000;2023-04-23T12:21:54;7.00;;;2.20;;
47413;SDS011;33163;0.000;0.000;2023-04-23T12:24:22;8.55;;;2.97;;
47413;SDS011;33163;0.000;0.000;2023-04-23T12:26:50;10.80;;;2.30;;
47413;SDS011;33163;0.000;0.000;2023-04-23T12:29:18;11.77;;;2.40;;
47413;SDS011;33163;0.000;0.000;2023-04-23T12:31:46;14.85;;;3.10;;
47413;SDS011;33163;0.000;0.000;2023-04-23T12:34:13;8.73;;;1.92;;
47413;SDS011;33163;0.000;0.000;2023-04-23T12:36:43;5.97;;;2.20;;
47413;SDS011;33163;0.000;0.000;2023-04-23T12:39:26;5.82;;;2.15;;
47413;SDS011;33163;0.000;0.000;2023-04-23T12:42:01;9.45;;;2.47;;
47413;SDS011;33163;0.000;0.000;2023-04-23T12:44:30;7.40;;;2.17;;
47413;SDS011;33163;0.000;0.000;2023-04-23T12:46:59;7.63;;;2.25;;
47413;SDS011;33163;0.000;0.000;2023-04-23T12:49:27;9.80;;;2.22;;
47413;SDS011;33163;0.000;0.000;2023-04-23T12:51:54;8.20;;;2.40;;
47413;SDS011;33163;0.000;0.000;2023-04-23T12:54:26;5.15;;;2.10;;
47413;SDS011;33163;0.000;0.000;2023-04-23T12:56:55;9.82;;;1.95;;
47413;SDS011;33163;0.000;0.000;2023-04-23T12:59:22;10.05;;;2.70;;
47413;SDS011;33163;0.000;0.000;2023-04-23T13:01:49;9.60;;;2.17;;
47413;SDS011;33163;0.000;0.000;2023-04-23T13:04:16;5.68;;;1.55;;
47413;SDS011;33163;0.000;0.000;2023-04-23T13:06:43;8.95;;;2.28;;
47413;SDS011;33163;0.000;0.000;2023-04-23T13:09:10;9.57;;;2.10;;
47413;SDS011;33163;0.000;0.000;2023-04-23T13:11:39;11.63;;;3.13;;
47413;SDS011;33163;0.000;0.000;2023-04-23T13:14:06;9.30;;;1.73;;
47413;SDS011;33163;0.000;0.000;2023-04-23T13:16:34;6.43;;;1.77;;
47413;SDS011;33163;0.000;0.000;2023-04-23T13:19:01;11.52;;;2.20;;
47413;SDS011;33163;0.000;0.000;2023-04-23T13:21:28;6.82;;;1.90;;
47413;SDS011;33163;0.000;0.000;2023-04-23T13:23:55;7.70;;;2.03;;
47413;SDS011;33163;0.000;0.000;2023-04-23T13:26:22;5.55;;;1.70;;
47413;SDS011;33163;0.000;0.000;2023-04-23T13:28:50;6.32;;;1.77;;
47413;SDS011;33163;0.000;0.000;2023-04-23T13:31:17;8.93;;;2.15;;
47413;SDS011;33163;0.000;0.000;2023-04-23T13:33:45;5.30;;;1.95;;
47413;SDS011;33163;0.000;0.000;2023-04-23T13:36:11;10.38;;;2.03;;
47413;SDS011;33163;0.000;0.000;2023-04-23T13:38:39;8.27;;;2.10;;
47413;SDS011;33163;0.000;0.000;2023-04-23T13:41:06;4.70;;;1.73;;
47413;SDS011;33163;0.000;0.000;2023-04-23T13:43:32;5.28;;;2.05;;
47413;SDS011;33163;0.000;0.000;2023-04-23T13:46:00;9.18;;;2.05;;
47413;SDS011;33163;0.000;0.000;2023-04-23T13:48:27;5.78;;;2.58;;
47413;SDS011;33163;0.000;0.000;2023-04-23T13:50:55;7.18;;;2.03;;
47413;SDS011;33163;0.000;0.000;2023-04-23T13:53:25;5.30;;;2.13;;
47413;SDS011;33163;0.000;0.000;2023-04-23T13:55:52;4.03;;;2.00;;
47413;SDS011;33163;0.000;0.000;2023-04-23T13:58:20;7.28;;;2.13;;
47413;SDS011;33163;0.000;0.000;2023-04-23T14:00:47;12.95;;;2.05;;
47413;SDS011;33163;0.000;0.000;2023-04-23T14:03:15;11.75;;;2.17;;
47413;SDS011;33163;0.000;0.000;2023-04-23T14:05:44;6.75;;;2.50;;
47413;SDS011;33163;0.000;0.000;2023-04-23T14:08:11;5.10;;;1.88;;
47413;SDS011;33163;0.000;0.000;2023-04-23T14:10:38;5.65;;;1.83;;
47413;SDS011;33163;0.000;0.000;2023-04-23T14:13:05;7.05;;;1.92;;
47413;SDS011;33163;0.000;0.000;2023-04-23T14:15:32;7.38;;;2.38;;
47413;SDS011;33163;0.000;0.000;2023-04-23T14:18:00;6.95;;;1.50;;
47413;SDS011;33163;0.000;0.000;2023-04-23T14:20:28;7.30;;;2.13;;
47413;SDS011;33163;0.000;0.000;2023-04-23T14:22:55;8.90;;;2.20;;
47413;SDS011;33163;0.000;0.000;2023-04-23T14:25:28;8.18;;;2.45;;
47413;SDS011;33163;0.000;0.000;2023-04-23T14:28:00;4.35;;;1.63;;
47413;SDS011;33163;0.000;0.000;2023-04-23T14:30:28;8.70;;;2.00;;
47413;SDS011;33163;0.000;0.000;2023-04-23T14:32:55;6.28;;;1.85;;
47413;SDS011;33163;0.000;0.000;2023-04-23T14:35:22;4.53;;;1.70;;
47413;SDS011;33163;0.000;0.000;2023-04-23T14:37:51;5.60;;;2.22;;
47413;SDS011;33163;0.000;0.000;2023-04-23T14:40:17;6.90;;;1.60;;
47413;SDS011;33163;0.000;0.000;2023-04-23T14:42:45;7.35;;;2.28;;
47413;SDS011;33163;0.000;0.000;2023-04-23T14:45:13;8.73;;;2.00;;
47413;SDS011;33163;0.000;0.000;2023-04-23T14:47:41;4.30;;;1.50;;
47413;SDS011;33163;0.000;0.000;2023-04-23T14:50:11;8.35;;;1.33;;
47413;SDS011;33163;0.000;0.000;2023-04-23T14:52:39;8.95;;;2.05;;
47413;SDS011;33163;0.000;0.000;2023-04-23T14:55:09;3.88;;;1.80;;
47413;SDS011;33163;0.000;0.000;2023-04-23T14:57:36;6.72;;;1.63;;
47413;SDS011;33163;0.000;0.000;2023-04-23T15:00:03;11.07;;;1.83;;
47413;SDS011;33163;0.000;0.000;2023-04-23T15:02:32;5.30;;;1.70;;
47413;SDS011;33163;0.000;0.000;2023-04-23T15:04:59;7.93;;;2.00;;
47413;SDS011;33163;0.000;0.000;2023-04-23T15:07:26;7.57;;;1.88;;